Terminal Aerodrome Forecast
Issued by NWS Newport/Morehead City, NC

Home | Current Version | Previous Version | Text Only | Print | Product List | Glossary On
Versions: 1 2 3 4 5 6 7 8 9 10 11 12 13 14 15 16 17 18
470
FTUS42 KMHX 212326
TAFEWN
TAF
KEWN 212326Z 2200/2224 10005KT P6SM BKN200
     FM220900 VRB04KT 5SM BR SCT030 BKN200
     FM221300 VRB03KT P6SM SCT040=

USA.gov is the U.S. government's official web portal to all federal, state and local government web resources and services.